Time;durP1;ratioP1;P1;durP2;ratioP2;P2;SDS_P1;SDS_P2;PMS_P1;PMS_P2;Temp;Humidity;BMP_temperature;BMP_pressure;BME280_temperature;BME280_humidity;BME280_pressure;Samples;Min_cycle;Max_cycle;Signal;HPM_P1;HPM_P2
2022/12/25 00:00:46;;;;;;;381.35;226.68;;;;;;;;;;5055624;28;20052;-79
2022/12/25 00:03:31;;;;;;;376.92;221.07;;;;;;;;;;5062110;28;20482;-81
2022/12/25 00:06:17;;;;;;;368.92;225.30;;;;;;;;;;5056602;28;20494;-80
2022/12/25 00:09:02;;;;;;;321.80;198.57;;;;;;;;;;5056357;28;20048;-81
2022/12/25 00:11:50;;;;;;;334.85;205.80;;;;;;;;;;5055432;28;20041;-80
2022/12/25 00:14:36;;;;;;;354.35;205.77;;;;;;;;;;5056446;28;20393;-80
2022/12/25 00:17:21;;;;;;;335.65;200.48;;;;;;;;;;5056084;28;20041;-80
2022/12/25 00:20:08;;;;;;;320.13;192.73;;;;;;;;;;5056619;28;20040;-81
2022/12/25 00:22:53;;;;;;;413.60;240.48;;;;;;;;;;5061834;28;20045;-79
2022/12/25 00:25:39;;;;;;;372.20;217.80;;;;;;;;;;5056132;28;20393;-79
2022/12/25 00:28:24;;;;;;;328.83;195.60;;;;;;;;;;5063194;28;20490;-81
2022/12/25 00:31:18;;;;;;;308.42;180.77;;;;;;;;;;5056110;28;20487;-81
2022/12/25 00:34:03;;;;;;;342.67;202.63;;;;;;;;;;5056494;28;20478;-80
2022/12/25 00:36:50;;;;;;;337.73;200.15;;;;;;;;;;5055163;28;20044;-81
2022/12/25 00:39:39;;;;;;;322.33;194.45;;;;;;;;;;5056438;28;20045;-81
2022/12/25 00:42:25;;;;;;;334.10;200.40;;;;;;;;;;5055878;28;20036;-80
2022/12/25 00:45:11;;;;;;;318.48;190.13;;;;;;;;;;5062312;28;20036;-79
2022/12/25 00:47:56;;;;;;;309.77;185.63;;;;;;;;;;5062612;28;20041;-79
2022/12/25 00:50:42;;;;;;;310.65;179.75;;;;;;;;;;5055777;28;20045;-79
2022/12/25 00:53:28;;;;;;;301.90;176.93;;;;;;;;;;5062338;28;20490;-79
2022/12/25 00:56:13;;;;;;;293.15;171.18;;;;;;;;;;5055793;28;20041;-79
2022/12/25 00:58:58;;;;;;;287.42;168.88;;;;;;;;;;5055052;28;20033;-79
2022/12/25 01:01:43;;;;;;;287.17;161.90;;;;;;;;;;5079984;28;20033;-79
2022/12/25 01:04:29;;;;;;;302.50;169.13;;;;;;;;;;5067510;28;20037;-81
2022/12/25 01:07:15;;;;;;;298.85;169.40;;;;;;;;;;5056433;28;20037;-81
2022/12/25 01:13:04;;;;;;;297.80;169.90;;;;;;;;;;5055358;28;20052;-83
2022/12/25 01:15:53;;;;;;;313.00;171.30;;;;;;;;;;5055519;28;20036;-83
2022/12/25 01:18:38;;;;;;;291.20;166.45;;;;;;;;;;5056531;28;20033;-81
2022/12/25 01:21:24;;;;;;;293.65;166.40;;;;;;;;;;5057047;28;20363;-81
2022/12/25 01:24:10;;;;;;;291.95;161.63;;;;;;;;;;5055590;28;20041;-81
2022/12/25 01:26:55;;;;;;;281.33;152.30;;;;;;;;;;5055171;28;20045;-80
2022/12/25 01:29:44;;;;;;;268.25;147.05;;;;;;;;;;5055383;28;20521;-80
2022/12/25 01:32:29;;;;;;;263.38;148.95;;;;;;;;;;5046618;28;20044;-84
2022/12/25 01:35:15;;;;;;;233.65;133.20;;;;;;;;;;5060686;28;20394;-83
2022/12/25 01:38:00;;;;;;;230.18;125.30;;;;;;;;;;5054866;28;20045;-83
2022/12/25 01:40:46;;;;;;;222.05;121.15;;;;;;;;;;5054546;28;20040;-80
2022/12/25 01:43:32;;;;;;;233.02;121.13;;;;;;;;;;5054741;28;20041;-80
2022/12/25 01:46:17;;;;;;;233.43;113.05;;;;;;;;;;5054400;28;20067;-80
2022/12/25 01:49:23;;;;;;;203.95;106.25;;;;;;;;;;5054708;28;20486;-83
2022/12/25 01:52:18;;;;;;;175.52;85.72;;;;;;;;;;5053184;28;20040;-81
2022/12/25 01:55:03;;;;;;;217.18;108.63;;;;;;;;;;5053764;28;20049;-84
2022/12/25 01:57:49;;;;;;;201.70;107.28;;;;;;;;;;5053631;28;20041;-80
2022/12/25 02:00:34;;;;;;;194.60;102.45;;;;;;;;;;5053500;28;20041;-80
2022/12/25 02:03:21;;;;;;;185.13;99.10;;;;;;;;;;5054272;28;20049;-84
2022/12/25 02:06:07;;;;;;;168.68;94.65;;;;;;;;;;5054763;28;20041;-84
2022/12/25 02:08:52;;;;;;;146.13;82.32;;;;;;;;;;5053842;28;20036;-84
2022/12/25 02:14:56;;;;;;;140.18;74.85;;;;;;;;;;5052485;28;20040;-83
2022/12/25 02:17:47;;;;;;;139.85;70.85;;;;;;;;;;5054095;28;20053;-83
2022/12/25 02:21:10;;;;;;;218.38;93.97;;;;;;;;;;5054556;28;20037;-83
2022/12/25 02:24:19;;;;;;;135.00;67.75;;;;;;;;;;5053841;28;20044;-83
2022/12/25 02:27:17;;;;;;;133.35;64.85;;;;;;;;;;5054209;28;20040;-80
2022/12/25 02:30:05;;;;;;;169.70;82.63;;;;;;;;;;5053776;28;20049;-80
2022/12/25 02:36:15;;;;;;;146.02;75.82;;;;;;;;;;5053782;28;20049;-83
2022/12/25 02:42:12;;;;;;;173.70;79.78;;;;;;;;;;5059687;28;20386;-80
2022/12/25 03:07:10;;;;;;;231.95;123.95;;;;;;;;;;5053510;28;20036;-80
2022/12/25 03:13:13;;;;;;;195.93;105.78;;;;;;;;;;5063197;28;20041;-80
2022/12/25 03:26:53;;;;;;;151.20;74.20;;;;;;;;;;5069971;28;20032;-80
2022/12/25 03:28:36;;;;;;;136.85;67.03;;;;;;;;;;5057223;28;20048;-80
2022/12/25 03:31:27;;;;;;;183.45;83.90;;;;;;;;;;5055902;28;20045;-80
2022/12/25 04:37:06;;;;;;;142.10;67.70;;;;;;;;;;5061633;28;20041;-82
2022/12/25 04:39:52;;;;;;;110.85;52.85;;;;;;;;;;5055931;28;20045;-80
2022/12/25 04:42:38;;;;;;;103.00;54.20;;;;;;;;;;5055943;28;20037;-80
2022/12/25 04:45:23;;;;;;;146.05;66.80;;;;;;;;;;5063003;28;20052;-81
2022/12/25 04:48:09;;;;;;;126.13;63.30;;;;;;;;;;5062093;28;20045;-80
2022/12/25 04:50:53;;;;;;;140.55;63.47;;;;;;;;;;5056227;28;20049;-80
2022/12/25 04:53:39;;;;;;;142.75;55.40;;;;;;;;;;5055748;28;20045;-82
2022/12/25 04:56:25;;;;;;;167.23;50.67;;;;;;;;;;5055204;28;20048;-83
2022/12/25 04:59:10;;;;;;;139.90;52.47;;;;;;;;;;5055560;28;20049;-82
2022/12/25 05:01:56;;;;;;;199.15;67.05;;;;;;;;;;5055604;28;20041;-83
2022/12/25 05:04:41;;;;;;;221.88;76.40;;;;;;;;;;5055533;28;20041;-80
2022/12/25 05:07:26;;;;;;;203.48;67.30;;;;;;;;;;5062271;28;20045;-81
2022/12/25 05:10:11;;;;;;;176.70;56.80;;;;;;;;;;5055225;28;20044;-79
2022/12/25 05:12:57;;;;;;;164.80;54.83;;;;;;;;;;5054407;28;20394;-81
2022/12/25 05:15:43;;;;;;;194.32;82.18;;;;;;;;;;5054200;28;20045;-82
2022/12/25 05:18:28;;;;;;;185.60;77.32;;;;;;;;;;5055139;28;20041;-79
2022/12/25 05:21:13;;;;;;;176.13;76.43;;;;;;;;;;5054177;28;20486;-79
2022/12/25 05:23:58;;;;;;;237.73;65.68;;;;;;;;;;5054998;28;20037;-79
2022/12/25 05:26:44;;;;;;;208.95;62.08;;;;;;;;;;5060984;28;20040;-79
2022/12/25 05:29:30;;;;;;;213.98;58.78;;;;;;;;;;5054963;28;20045;-82
2022/12/25 05:32:15;;;;;;;238.95;62.08;;;;;;;;;;5053790;28;20041;-82
2022/12/25 05:35:00;;;;;;;262.73;90.93;;;;;;;;;;5061352;28;20474;-82
2022/12/25 05:37:45;;;;;;;224.40;73.57;;;;;;;;;;5078408;28;20040;-79
2022/12/25 05:40:31;;;;;;;172.40;66.78;;;;;;;;;;5065131;28;20041;-80
2022/12/25 05:43:18;;;;;;;236.50;74.15;;;;;;;;;;5055899;28;20045;-82
2022/12/25 05:46:08;;;;;;;189.68;75.57;;;;;;;;;;5070405;28;20049;-80
2022/12/25 05:48:54;;;;;;;196.48;76.05;;;;;;;;;;5059815;28;20045;-82
2022/12/25 05:51:40;;;;;;;224.25;77.43;;;;;;;;;;5054700;28;20041;-83
2022/12/25 05:54:25;;;;;;;165.80;66.30;;;;;;;;;;5056853;28;20037;-81
2022/12/25 05:57:10;;;;;;;261.02;67.22;;;;;;;;;;5065340;28;20052;-81
2022/12/25 05:59:57;;;;;;;195.32;56.50;;;;;;;;;;5054455;28;20041;-83
2022/12/25 06:02:42;;;;;;;135.85;50.78;;;;;;;;;;5054519;28;20041;-83
2022/12/25 06:05:28;;;;;;;185.75;45.78;;;;;;;;;;5054834;28;20037;-83
2022/12/25 06:08:13;;;;;;;111.85;43.53;;;;;;;;;;5054356;28;20049;-82
2022/12/25 06:11:02;;;;;;;89.05;42.67;;;;;;;;;;5054334;28;20044;-82
2022/12/25 06:13:51;;;;;;;104.38;46.78;;;;;;;;;;5059890;28;20406;-82
2022/12/25 06:16:35;;;;;;;104.93;47.80;;;;;;;;;;5054233;28;20037;-80
2022/12/25 06:19:21;;;;;;;106.93;50.95;;;;;;;;;;5054004;28;20044;-82
2022/12/25 06:22:06;;;;;;;198.20;96.57;;;;;;;;;;5059650;28;20037;-81
2022/12/25 06:24:51;;;;;;;122.65;53.40;;;;;;;;;;5059722;28;20037;-83
2022/12/25 06:27:37;;;;;;;184.02;72.00;;;;;;;;;;5052884;28;20490;-81
2022/12/25 06:30:23;;;;;;;99.15;48.70;;;;;;;;;;5054151;28;20049;-80
2022/12/25 06:33:08;;;;;;;150.88;61.90;;;;;;;;;;5059441;28;20045;-80
2022/12/25 06:35:53;;;;;;;175.23;55.85;;;;;;;;;;5053688;28;20036;-80
2022/12/25 06:38:38;;;;;;;147.00;52.35;;;;;;;;;;5053915;28;20032;-80
2022/12/25 06:41:25;;;;;;;171.43;52.67;;;;;;;;;;5059347;28;20033;-83
2022/12/25 06:44:11;;;;;;;189.18;57.92;;;;;;;;;;5053595;28;20048;-85
2022/12/25 06:46:56;;;;;;;222.73;84.90;;;;;;;;;;5053288;28;20390;-83
2022/12/25 06:49:42;;;;;;;251.20;101.32;;;;;;;;;;5059013;28;20045;-80
2022/12/25 06:52:27;;;;;;;220.13;98.45;;;;;;;;;;5053433;28;20053;-84
2022/12/25 06:55:13;;;;;;;203.05;85.97;;;;;;;;;;5052635;28;20048;-85
2022/12/25 06:57:58;;;;;;;192.75;75.50;;;;;;;;;;5051931;28;20049;-81
2022/12/25 07:00:44;;;;;;;187.23;69.25;;;;;;;;;;5053141;28;20037;-81
2022/12/25 07:03:30;;;;;;;186.68;71.75;;;;;;;;;;5053355;28;20399;-84
2022/12/25 07:06:15;;;;;;;168.65;71.68;;;;;;;;;;5053444;28;20032;-81
2022/12/25 07:09:01;;;;;;;146.18;68.40;;;;;;;;;;5053295;28;20044;-81
2022/12/25 07:11:46;;;;;;;151.10;65.25;;;;;;;;;;5053149;28;20045;-82
2022/12/25 07:14:32;;;;;;;136.77;66.63;;;;;;;;;;5058885;28;20056;-85
2022/12/25 07:17:19;;;;;;;136.23;54.95;;;;;;;;;;5053115;28;20044;-80
2022/12/25 07:20:05;;;;;;;140.30;63.08;;;;;;;;;;5053365;28;20045;-80
2022/12/25 07:22:51;;;;;;;142.60;62.45;;;;;;;;;;5053176;28;20037;-81
2022/12/25 07:25:36;;;;;;;143.43;62.85;;;;;;;;;;5053433;28;20045;-82
2022/12/25 07:28:21;;;;;;;140.40;63.20;;;;;;;;;;5058772;28;20045;-79
2022/12/25 07:31:11;;;;;;;143.07;60.42;;;;;;;;;;5053122;28;20048;-79
2022/12/25 07:33:56;;;;;;;162.32;63.95;;;;;;;;;;5052113;28;20037;-79
2022/12/25 07:36:41;;;;;;;121.72;56.92;;;;;;;;;;5052337;28;20037;-82
2022/12/25 07:39:26;;;;;;;118.10;60.85;;;;;;;;;;5058636;28;20033;-83
2022/12/25 07:42:12;;;;;;;134.68;64.38;;;;;;;;;;5052766;28;20040;-79
2022/12/25 07:44:57;;;;;;;135.20;72.10;;;;;;;;;;5053102;28;20037;-81
2022/12/25 07:47:43;;;;;;;154.65;80.90;;;;;;;;;;5053088;28;20041;-81
2022/12/25 07:50:28;;;;;;;135.70;73.00;;;;;;;;;;5051778;28;20048;-79
2022/12/25 07:53:14;;;;;;;156.32;85.10;;;;;;;;;;5071454;28;20029;-80
2022/12/25 07:56:03;;;;;;;201.90;115.20;;;;;;;;;;5077856;28;20041;-80
2022/12/25 07:58:49;;;;;;;210.02;116.35;;;;;;;;;;5058658;28;20045;-83
2022/12/25 08:01:34;;;;;;;205.50;116.28;;;;;;;;;;5055713;28;20485;-80
2022/12/25 08:04:19;;;;;;;181.98;105.65;;;;;;;;;;5055886;28;20041;-82
2022/12/25 08:07:04;;;;;;;184.95;105.53;;;;;;;;;;5055542;28;20481;-80
2022/12/25 08:09:49;;;;;;;175.63;96.50;;;;;;;;;;5055135;28;20037;-82
2022/12/25 08:12:34;;;;;;;172.55;92.45;;;;;;;;;;5056373;28;20478;-82
2022/12/25 08:15:20;;;;;;;176.82;95.28;;;;;;;;;;5056414;28;20049;-80
2022/12/25 08:18:05;;;;;;;196.00;99.22;;;;;;;;;;5055118;28;20041;-82
2022/12/25 08:20:51;;;;;;;145.45;72.78;;;;;;;;;;5055951;28;20049;-78
2022/12/25 08:23:39;;;;;;;140.00;76.65;;;;;;;;;;5056152;28;20040;-81
2022/12/25 08:26:24;;;;;;;132.88;73.25;;;;;;;;;;5054621;28;20053;-80
2022/12/25 08:29:10;;;;;;;135.18;72.88;;;;;;;;;;5056107;28;20494;-80
2022/12/25 08:31:55;;;;;;;117.57;66.03;;;;;;;;;;5054501;28;20390;-81
2022/12/25 08:34:41;;;;;;;119.13;71.50;;;;;;;;;;5048084;28;20049;-81
2022/12/25 08:37:29;;;;;;;106.20;58.47;;;;;;;;;;5055620;28;20037;-80
2022/12/25 08:40:14;;;;;;;100.00;56.20;;;;;;;;;;5055539;28;20045;-79
2022/12/25 08:43:00;;;;;;;63.38;38.42;;;;;;;;;;5063214;28;20040;-81
2022/12/25 08:45:46;;;;;;;92.35;47.30;;;;;;;;;;5062084;28;20037;-81
2022/12/25 08:48:32;;;;;;;99.10;52.83;;;;;;;;;;5057039;28;20053;-82
2022/12/25 08:51:20;;;;;;;105.63;56.30;;;;;;;;;;5056542;28;20041;-76
2022/12/25 08:54:05;;;;;;;112.57;66.30;;;;;;;;;;5054381;28;20041;-82
2022/12/25 08:56:50;;;;;;;130.57;71.90;;;;;;;;;;5054642;28;20041;-77
2022/12/25 08:59:35;;;;;;;118.93;67.40;;;;;;;;;;5055356;28;20048;-82
2022/12/25 09:02:21;;;;;;;129.43;71.95;;;;;;;;;;5055180;28;20041;-81
2022/12/25 09:05:08;;;;;;;127.70;69.10;;;;;;;;;;5055298;28;20048;-77
2022/12/25 09:07:53;;;;;;;120.35;66.60;;;;;;;;;;5061635;28;20049;-82
2022/12/25 09:10:39;;;;;;;118.70;63.25;;;;;;;;;;5054940;28;20048;-77
2022/12/25 09:13:24;;;;;;;79.05;43.28;;;;;;;;;;5054414;28;20487;-81
2022/12/25 09:16:15;;;;;;;65.70;37.70;;;;;;;;;;5054482;28;20482;-80
2022/12/25 09:19:00;;;;;;;65.40;39.00;;;;;;;;;;5054993;28;20037;-81
2022/12/25 09:21:46;;;;;;;134.70;75.30;;;;;;;;;;5055057;28;20489;-77
2022/12/25 09:24:31;;;;;;;205.82;113.00;;;;;;;;;;5054669;28;20037;-81
2022/12/25 09:27:17;;;;;;;100.68;53.33;;;;;;;;;;5054906;28;20049;-85
2022/12/25 09:30:03;;;;;;;48.67;29.15;;;;;;;;;;5054523;28;20478;-81
2022/12/25 09:32:48;;;;;;;85.30;45.30;;;;;;;;;;5053205;28;20404;-83
2022/12/25 09:35:34;;;;;;;77.38;41.78;;;;;;;;;;5054364;28;20037;-81
2022/12/25 09:38:20;;;;;;;43.33;25.88;;;;;;;;;;5055137;28;20061;-80
2022/12/25 09:41:42;;;;;;;53.55;32.55;;;;;;;;;;5054386;28;20036;-86
2022/12/25 09:44:39;;;;;;;48.72;28.50;;;;;;;;;;5056068;28;20474;-81
2022/12/25 09:47:28;;;;;;;81.63;44.13;;;;;;;;;;5054347;28;20044;-80
2022/12/25 09:50:23;;;;;;;41.85;26.13;;;;;;;;;;5060737;28;20048;-86
2022/12/25 09:53:11;;;;;;;47.78;29.20;;;;;;;;;;5054981;28;20045;-85
2022/12/25 09:56:08;;;;;;;44.38;26.88;;;;;;;;;;5058043;28;20045;-79
2022/12/25 09:58:53;;;;;;;45.58;26.75;;;;;;;;;;5054702;28;20041;-79
2022/12/25 10:01:52;;;;;;;51.45;31.02;;;;;;;;;;5054491;28;20045;-80
2022/12/25 10:05:01;;;;;;;48.03;28.40;;;;;;;;;;5055048;28;20411;-79
2022/12/25 10:08:22;;;;;;;49.50;29.25;;;;;;;;;;5062065;28;20040;-78
2022/12/25 10:11:28;;;;;;;42.60;26.38;;;;;;;;;;5079753;28;20048;-77
2022/12/25 10:14:23;;;;;;;49.72;26.55;;;;;;;;;;5055205;28;20040;-78
2022/12/25 10:17:42;;;;;;;40.67;24.67;;;;;;;;;;5060097;28;20478;-78
2022/12/25 10:20:34;;;;;;;48.65;29.67;;;;;;;;;;5060175;28;20049;-84
2022/12/25 10:23:26;;;;;;;34.35;22.80;;;;;;;;;;5053288;28;20037;-85
2022/12/25 10:26:21;;;;;;;33.15;20.65;;;;;;;;;;5053597;28;20053;-80
2022/12/25 10:29:13;;;;;;;32.00;19.55;;;;;;;;;;5059292;28;20386;-79
2022/12/25 10:31:58;;;;;;;36.13;21.17;;;;;;;;;;5053623;28;20394;-85
2022/12/25 10:34:44;;;;;;;25.98;15.55;;;;;;;;;;5053842;28;20045;-80
2022/12/25 10:37:30;;;;;;;28.50;18.15;;;;;;;;;;5053599;28;20041;-78
2022/12/25 10:40:21;;;;;;;31.63;19.45;;;;;;;;;;5053497;28;20044;-86
2022/12/25 10:43:11;;;;;;;32.08;21.02;;;;;;;;;;5053500;28;20045;-85
2022/12/25 10:45:57;;;;;;;34.50;21.63;;;;;;;;;;5052369;28;20486;-86
2022/12/25 10:49:10;;;;;;;29.15;18.90;;;;;;;;;;5059134;28;20037;-87
2022/12/25 10:51:55;;;;;;;39.53;20.63;;;;;;;;;;5058962;28;20052;-79
2022/12/25 10:54:42;;;;;;;28.95;18.50;;;;;;;;;;5053531;28;20041;-80
2022/12/25 10:57:28;;;;;;;31.40;18.30;;;;;;;;;;5056934;28;20056;-80
2022/12/25 11:00:25;;;;;;;26.10;15.90;;;;;;;;;;5053316;28;20053;-80
2022/12/25 11:03:23;;;;;;;25.23;16.20;;;;;;;;;;5060508;28;20048;-81
2022/12/25 11:06:23;;;;;;;23.23;14.20;;;;;;;;;;5053354;28;20422;-87
2022/12/25 11:09:15;;;;;;;24.63;14.98;;;;;;;;;;5053813;28;20041;-80
2022/12/25 11:12:01;;;;;;;20.10;12.75;;;;;;;;;;5053585;28;20041;-80
2022/12/25 11:14:58;;;;;;;22.88;14.10;;;;;;;;;;5053482;28;20398;-87
2022/12/25 11:17:48;;;;;;;23.52;15.10;;;;;;;;;;5053314;28;20048;-87
2022/12/25 11:20:35;;;;;;;29.50;17.67;;;;;;;;;;5053173;28;20049;-80
2022/12/25 11:23:22;;;;;;;31.52;19.77;;;;;;;;;;5053010;28;20044;-80
2022/12/25 11:26:10;;;;;;;37.00;21.38;;;;;;;;;;5054021;28;20036;-86
2022/12/25 11:28:56;;;;;;;36.03;24.30;;;;;;;;;;5059859;28;20486;-80
2022/12/25 11:31:42;;;;;;;36.13;22.98;;;;;;;;;;5056266;28;20044;-87
2022/12/25 11:34:42;;;;;;;38.60;25.00;;;;;;;;;;5057096;28;20037;-80
2022/12/25 11:37:45;;;;;;;42.78;24.70;;;;;;;;;;5048838;28;20053;-87
2022/12/25 11:40:42;;;;;;;45.60;25.88;;;;;;;;;;5056828;28;20041;-79
2022/12/25 11:43:58;;;;;;;45.92;29.67;;;;;;;;;;5062464;28;20037;-80
2022/12/25 11:46:45;;;;;;;47.42;30.25;;;;;;;;;;5052676;28;20040;-79
2022/12/25 11:49:37;;;;;;;43.70;26.88;;;;;;;;;;5057098;28;20045;-86
2022/12/25 11:52:26;;;;;;;42.83;26.38;;;;;;;;;;5057417;28;20041;-87
2022/12/25 11:55:39;;;;;;;42.95;28.05;;;;;;;;;;5063189;28;20040;-79
2022/12/25 11:58:34;;;;;;;46.30;29.13;;;;;;;;;;5056571;28;20510;-87
2022/12/25 12:01:32;;;;;;;51.35;30.95;;;;;;;;;;5058109;28;20040;-87
2022/12/25 12:04:27;;;;;;;75.80;43.80;;;;;;;;;;5063170;28;20041;-87
2022/12/25 12:07:22;;;;;;;61.15;36.35;;;;;;;;;;5064118;28;20041;-86
2022/12/25 12:10:16;;;;;;;57.00;34.95;;;;;;;;;;5057143;28;20045;-80
2022/12/25 12:13:21;;;;;;;;;;;;;;;;;;5063173;28;20402;-86
2022/12/25 12:16:08;;;;;;;39.40;23.45;;;;;;;;;;5062143;28;20239;-79
2022/12/25 12:18:53;;;;;;;32.97;21.42;;;;;;;;;;5059343;28;20041;-85
2022/12/25 12:21:42;;;;;;;34.28;20.05;;;;;;;;;;5062791;28;20482;-79
2022/12/25 12:24:40;;;;;;;31.63;19.75;;;;;;;;;;5058948;28;20029;-84
2022/12/25 12:27:28;;;;;;;23.42;15.00;;;;;;;;;;5081101;28;20025;-85
2022/12/25 12:30:24;;;;;;;25.20;15.32;;;;;;;;;;5064753;28;20040;-79
2022/12/25 12:33:19;;;;;;;28.77;17.95;;;;;;;;;;5061633;28;20049;-87
2022/12/25 12:36:05;;;;;;;32.20;19.83;;;;;;;;;;5061340;28;20045;-88
2022/12/25 12:38:50;;;;;;;57.10;31.75;;;;;;;;;;5056563;28;20053;-81
2022/12/25 12:41:43;;;;;;;27.05;18.35;;;;;;;;;;5055805;28;20045;-86
2022/12/25 12:44:33;;;;;;;87.93;46.10;;;;;;;;;;5056196;28;20037;-80
2022/12/25 12:47:39;;;;;;;29.80;17.98;;;;;;;;;;5061484;28;20040;-82
2022/12/25 12:50:36;;;;;;;30.83;18.10;;;;;;;;;;5055858;28;20045;-85
2022/12/25 12:53:22;;;;;;;24.58;11.40;;;;;;;;;;5061860;28;20471;-85
2022/12/25 12:56:09;;;;;;;20.75;9.70;;;;;;;;;;5054600;28;20041;-79
2022/12/25 12:58:54;;;;;;;16.52;11.05;;;;;;;;;;5061117;28;20048;-81
2022/12/25 13:02:18;;;;;;;19.95;11.52;;;;;;;;;;5055062;28;20041;-86
2022/12/25 13:06:00;;;;;;;21.02;13.10;;;;;;;;;;5045215;28;20049;-82
2022/12/25 13:09:30;;;;;;;21.75;13.13;;;;;;;;;;5025211;28;20041;-88
2022/12/25 13:12:16;;;;;;;24.30;14.77;;;;;;;;;;5060064;28;20048;-82
2022/12/25 13:15:11;;;;;;;25.70;16.50;;;;;;;;;;5056106;28;20037;-86
2022/12/25 13:18:08;;;;;;;34.85;17.13;;;;;;;;;;5057923;28;20057;-81
2022/12/25 13:21:01;;;;;;;26.10;16.90;;;;;;;;;;5056769;28;20513;-88
2022/12/25 13:23:49;;;;;;;25.83;17.42;;;;;;;;;;5065675;28;20045;-87
2022/12/25 13:26:35;;;;;;;30.52;16.48;;;;;;;;;;5063670;28;20045;-90
2022/12/25 13:29:34;;;;;;;24.60;15.18;;;;;;;;;;5060150;28;20048;-81
2022/12/25 13:32:25;;;;;;;39.67;18.92;;;;;;;;;;5064678;28;20398;-87
2022/12/25 13:35:14;;;;;;;23.38;14.43;;;;;;;;;;5051233;28;20049;-89
2022/12/25 13:38:00;;;;;;;24.92;14.70;;;;;;;;;;5058154;28;20399;-81
2022/12/25 13:43:58;;;;;;;26.83;16.48;;;;;;;;;;5068121;28;20045;-89
2022/12/25 13:46:43;;;;;;;25.00;15.80;;;;;;;;;;5063926;28;20036;-83
2022/12/25 13:49:30;;;;;;;31.25;17.58;;;;;;;;;;5067091;28;20041;-89
2022/12/25 13:52:20;;;;;;;31.80;18.17;;;;;;;;;;5068622;28;20045;-87
2022/12/25 13:55:12;;;;;;;28.33;17.48;;;;;;;;;;5054435;28;20041;-81
2022/12/25 13:58:01;;;;;;;26.42;15.80;;;;;;;;;;5055509;28;20478;-88
2022/12/25 14:00:48;;;;;;;24.60;15.15;;;;;;;;;;5063139;28;20037;-81
2022/12/25 14:03:42;;;;;;;25.55;15.50;;;;;;;;;;5053821;28;20418;-89
2022/12/25 14:06:29;;;;;;;24.23;14.85;;;;;;;;;;5054013;28;20115;-82
2022/12/25 14:09:15;;;;;;;26.73;17.77;;;;;;;;;;5059365;28;20045;-89
2022/12/25 14:12:00;;;;;;;24.10;14.30;;;;;;;;;;5056120;28;20049;-82
2022/12/25 14:14:50;;;;;;;27.05;16.65;;;;;;;;;;5056479;28;20045;-90
2022/12/25 14:17:35;;;;;;;28.05;19.15;;;;;;;;;;5055197;28;20494;-82
2022/12/25 14:20:29;;;;;;;113.95;65.90;;;;;;;;;;5055256;28;20053;-82
2022/12/25 14:23:16;;;;;;;179.95;95.03;;;;;;;;;;5063143;28;20058;-88
2022/12/25 14:26:01;;;;;;;438.65;313.10;;;;;;;;;;5056450;28;20040;-81
2022/12/25 14:29:03;;;;;;;90.18;62.50;;;;;;;;;;5054215;28;20048;-82
2022/12/25 14:31:49;;;;;;;48.08;29.05;;;;;;;;;;5062759;28;20048;-81
2022/12/25 14:34:35;;;;;;;49.25;30.23;;;;;;;;;;5055703;28;20424;-88
2022/12/25 14:37:25;;;;;;;49.75;28.65;;;;;;;;;;5058435;28;20049;-88
2022/12/25 14:40:24;;;;;;;44.88;26.55;;;;;;;;;;5063219;28;20041;-87
2022/12/25 14:43:24;;;;;;;54.42;27.48;;;;;;;;;;5075601;28;20402;-83
2022/12/25 14:46:22;;;;;;;47.17;26.65;;;;;;;;;;5069087;28;20064;-83
2022/12/25 14:49:22;;;;;;;45.63;29.75;;;;;;;;;;5054031;28;20474;-82
2022/12/25 14:52:12;;;;;;;56.13;34.47;;;;;;;;;;5052710;28;20044;-82
2022/12/25 14:55:07;;;;;;;73.03;40.42;;;;;;;;;;5053297;28;20040;-88
2022/12/25 14:57:59;;;;;;;65.60;37.08;;;;;;;;;;5055155;28;20416;-88
2022/12/25 15:00:53;;;;;;;61.13;35.85;;;;;;;;;;5053309;28;20510;-82
2022/12/25 15:03:38;;;;;;;68.40;38.20;;;;;;;;;;5055433;28;20045;-86
2022/12/25 15:06:24;;;;;;;78.82;43.15;;;;;;;;;;5060546;28;20044;-82
2022/12/25 15:09:15;;;;;;;67.35;38.40;;;;;;;;;;5059794;28;20032;-86
2022/12/25 15:12:01;;;;;;;63.03;35.88;;;;;;;;;;5064458;28;20363;-86
2022/12/25 15:14:46;;;;;;;66.55;36.70;;;;;;;;;;5058029;28;20049;-86
2022/12/25 15:17:35;;;;;;;79.93;44.78;;;;;;;;;;5060019;28;20040;-86
2022/12/25 15:20:26;;;;;;;102.45;54.03;;;;;;;;;;5059619;28;20045;-81
2022/12/25 15:23:14;;;;;;;116.03;56.50;;;;;;;;;;5059403;28;20394;-82
2022/12/25 15:26:00;;;;;;;103.85;52.58;;;;;;;;;;5058838;28;20501;-87
2022/12/25 15:28:46;;;;;;;113.00;56.88;;;;;;;;;;5060212;28;20048;-86
2022/12/25 15:31:33;;;;;;;126.68;66.90;;;;;;;;;;5060545;28;20048;-87
2022/12/25 15:34:19;;;;;;;121.57;64.07;;;;;;;;;;5059628;28;20045;-81
2022/12/25 15:37:04;;;;;;;143.98;77.40;;;;;;;;;;5058798;28;20041;-82
2022/12/25 15:39:49;;;;;;;136.23;73.60;;;;;;;;;;5060365;28;20053;-82
2022/12/25 15:42:35;;;;;;;133.65;70.38;;;;;;;;;;5066004;28;20494;-86
2022/12/25 15:45:29;;;;;;;128.15;66.90;;;;;;;;;;5060236;28;20045;-83
2022/12/25 15:48:17;;;;;;;167.27;86.57;;;;;;;;;;5063253;28;20041;-82
2022/12/25 15:51:03;;;;;;;174.43;90.38;;;;;;;;;;5065792;28;20040;-78
2022/12/25 15:53:48;;;;;;;156.98;80.80;;;;;;;;;;5066272;28;20040;-79
2022/12/25 15:56:51;;;;;;;156.80;84.05;;;;;;;;;;5067016;28;20041;-79
2022/12/25 15:59:36;;;;;;;145.70;75.40;;;;;;;;;;5066674;28;20048;-78
2022/12/25 16:02:22;;;;;;;140.40;69.97;;;;;;;;;;5063593;28;20482;-79
2022/12/25 16:05:07;;;;;;;118.07;59.42;;;;;;;;;;5063773;28;20402;-80
2022/12/25 16:07:53;;;;;;;112.05;58.58;;;;;;;;;;5061829;28;20482;-78
2022/12/25 16:10:38;;;;;;;131.85;72.60;;;;;;;;;;5061647;28;20044;-78
2022/12/25 16:13:24;;;;;;;135.80;72.60;;;;;;;;;;5061807;28;20037;-78
2022/12/25 16:16:09;;;;;;;147.27;78.60;;;;;;;;;;5066470;28;20041;-78
2022/12/25 16:18:54;;;;;;;151.20;85.28;;;;;;;;;;5058923;28;20037;-78
2022/12/25 16:21:43;;;;;;;250.55;124.50;;;;;;;;;;5059207;28;20414;-78
2022/12/25 16:24:28;;;;;;;188.18;103.50;;;;;;;;;;5058044;28;20048;-78
2022/12/25 16:27:14;;;;;;;160.32;90.10;;;;;;;;;;5058542;28;20040;-78
2022/12/25 16:29:59;;;;;;;192.50;103.53;;;;;;;;;;5064230;28;20036;-78
2022/12/25 16:32:48;;;;;;;244.07;125.50;;;;;;;;;;5064318;28;20470;-78
2022/12/25 16:35:34;;;;;;;233.93;125.32;;;;;;;;;;5057696;28;20045;-79
2022/12/25 16:38:20;;;;;;;292.50;157.02;;;;;;;;;;5064836;28;20045;-78
2022/12/25 16:41:05;;;;;;;383.42;199.27;;;;;;;;;;5057679;28;20056;-79
2022/12/25 16:43:50;;;;;;;225.23;124.53;;;;;;;;;;5058804;28;20044;-79
2022/12/25 16:46:38;;;;;;;223.13;118.00;;;;;;;;;;5056762;28;20044;-79
2022/12/25 16:49:24;;;;;;;132.30;77.10;;;;;;;;;;5056297;28;20037;-79
2022/12/25 16:52:09;;;;;;;146.50;84.43;;;;;;;;;;5056393;28;20080;-79
2022/12/25 16:54:55;;;;;;;166.57;91.78;;;;;;;;;;5055972;28;20037;-77
2022/12/25 16:57:40;;;;;;;140.90;76.43;;;;;;;;;;5074763;28;20033;-76
2022/12/25 17:00:27;;;;;;;161.35;88.47;;;;;;;;;;5071542;28;20049;-79
2022/12/25 17:03:11;;;;;;;190.68;106.68;;;;;;;;;;5064381;28;20052;-78
2022/12/25 17:05:57;;;;;;;194.30;106.38;;;;;;;;;;5069675;28;20049;-78
2022/12/25 17:08:43;;;;;;;195.10;111.07;;;;;;;;;;5063153;28;20044;-78
2022/12/25 17:11:28;;;;;;;190.30;110.05;;;;;;;;;;5060609;28;20045;-77
2022/12/25 17:14:14;;;;;;;180.43;100.28;;;;;;;;;;5068529;28;20391;-77
2022/12/25 17:17:00;;;;;;;196.65;104.75;;;;;;;;;;5059299;28;20053;-77
2022/12/25 17:19:45;;;;;;;219.10;117.47;;;;;;;;;;5063413;28;20048;-81
2022/12/25 17:22:30;;;;;;;241.88;130.48;;;;;;;;;;5061185;28;20049;-80
2022/12/25 17:25:16;;;;;;;232.63;122.88;;;;;;;;;;5054691;28;20045;-79
2022/12/25 17:28:01;;;;;;;432.08;226.70;;;;;;;;;;5059740;28;20036;-80
2022/12/25 17:30:46;;;;;;;239.95;132.60;;;;;;;;;;5061369;28;20049;-79
2022/12/25 17:33:35;;;;;;;275.52;145.13;;;;;;;;;;5061151;28;20041;-79
2022/12/25 17:36:21;;;;;;;250.02;140.73;;;;;;;;;;5054668;28;20041;-80
2022/12/25 17:39:06;;;;;;;233.35;129.85;;;;;;;;;;5055175;28;20045;-81
2022/12/25 17:41:52;;;;;;;161.07;85.30;;;;;;;;;;5062118;28;20048;-80
2022/12/25 17:44:37;;;;;;;171.95;96.57;;;;;;;;;;5055266;28;20040;-79
2022/12/25 17:47:23;;;;;;;208.18;120.22;;;;;;;;;;5057159;28;20040;-80
2022/12/25 17:50:08;;;;;;;167.25;94.85;;;;;;;;;;5056405;28;20037;-81
2022/12/25 17:52:54;;;;;;;157.95;88.00;;;;;;;;;;5054851;28;20037;-79
2022/12/25 17:55:40;;;;;;;174.23;96.60;;;;;;;;;;5054498;28;20033;-79
2022/12/25 17:58:26;;;;;;;165.82;92.93;;;;;;;;;;5054504;28;20048;-80
2022/12/25 18:01:14;;;;;;;193.48;107.35;;;;;;;;;;5053864;28;20044;-79
2022/12/25 18:04:00;;;;;;;249.43;136.05;;;;;;;;;;5060015;28;20042;-79